TISX/STX METAR and TAF weather

Enter ICAO airport designator
Station Type Date Time Source
TISX METAR 2019/08/22 06:53 UTC NOAA

TISX 220653Z AUTO 36004KT 10SM FEW022 25/23 A2998 RMK AO2 SLP151 T02500228


Station Type Date Time Source
TISX Decoded METAR 2019/08/22 06:53 UTC NOAA

Station name not available
Aug 22, 2019 - 02:53 AM EDT / 2019.08.22 0653 UTC
Wind: from the N (360 degrees) at 5 MPH (4 KT):0
Visibility: 10 mile(s):0
Sky conditions: mostly clear
Temperature: 77.0 F (25.0 C)
Dew Point: 73.0 F (22.8 C)
Relative Humidity: 87%
Pressure (altimeter): 29.98 in. Hg (1015 hPa)
ob: TISX 220653Z AUTO 36004KT 10SM FEW022 25/23 A2998 RMK AO2 SLP151 T02500228
cycle: 7

Station Type Date Time Source
TISX TAF 2019/08/22 06:44 UTC NOAA

TAF TISX 220538Z 2206/2306 06005KT P6SM VCSH SCT025 SCT035
TEMPO 2206/2209 5SM SHRA BKN025
FM221400 12013KT P6SM VCSH FEW030 SCT050
FM222300 07009KT P6SM VCSH SCT026 SCT050

Example: see airport list